Kipton, Ohio
Current Conditions -  °F | °C
As of 12:53 AM on Thursday 29 Jan 2015 (Local Time) from KLPR Reporting Station
Clear Clear  
Wind Chill: 11°   Ceiling: Unl
Heat Index: 24°   Visibility: 10mi
Dew Point: 13°   Wind: 15mph
Humidity: 62%   Direction: 190°S
Pressure: 30.15"   Gusts: NA
Location:  41.27°N, 82.3°W
Report Text: KLPR 290553Z AUTO 19013KT 10SM CLR M04/M11 A3015 RMK AO2 SLP220 T10441106 11044 21067 56029 TSNO
Loading
Personal Weather Stations






























Interactive Weather Map New forecast layout! Learn more

10-Day Weather Forecast

Advertisements
Track Severe Weather on mobile